Time;durP1;ratioP1;P1;durP2;ratioP2;P2;SDS_P1;SDS_P2;PMS_P1;PMS_P2;Temp;Humidity;BMP_temperature;BMP_pressure;BME280_temperature;BME280_humidity;BME280_pressure;Samples;Min_cycle;Max_cycle;Signal;HPM_P1;HPM_P2
2022/09/03 00:01:10;;;;;;;3.30;1.17;;;;;;;17.75;47.38;68747.41;5057151;28;20087;-76
2022/09/03 00:03:49;;;;;;;3.63;1.05;;;;;;;17.70;47.13;68736.31;5046332;28;20411;-76
2022/09/03 00:06:23;;;;;;;3.25;1.00;;;;;;;17.68;47.75;68742.09;5040902;28;20045;-76
2022/09/03 00:09:04;;;;;;;2.70;0.90;;;;;;;;;;5044410;28;20041;-76
2022/09/03 00:11:38;;;;;;;3.08;0.90;;;;;;;17.67;47.69;68737.69;5046003;28;20040;-76
2022/09/03 00:14:09;;;;;;;1.83;0.90;;;;;;;17.66;47.56;68737.09;5045727;28;20109;-76
2022/09/03 00:16:55;;;;;;;3.33;1.10;;;;;;;17.66;47.45;68731.72;5024720;28;20041;-76
2022/09/03 00:19:32;;;;;;;2.05;0.90;;;;;;;17.65;47.55;68735.97;5028260;28;20042;-76
2022/09/03 00:22:21;;;;;;;1.67;0.80;;;;;;;17.64;47.68;68734.28;5061141;28;20045;-76
2022/09/03 00:24:46;;;;;;;4.47;1.20;;;;;;;;;;5044143;28;20075;-76
2022/09/03 00:27:17;;;;;;;4.50;1.10;;;;;;;17.54;47.77;68724.00;5044949;28;20060;-77
2022/09/03 00:30:06;;;;;;;6.05;1.13;;;;;;;;;;5039698;28;20059;-76
2022/09/03 00:32:46;;;;;;;1.88;0.80;;;;;;;17.43;48.20;68710.88;5040598;28;20044;-76
2022/09/03 00:35:36;;;;;;;3.10;0.80;;;;;;;17.33;48.51;68700.59;5045479;28;20059;-76
2022/09/03 00:38:02;;;;;;;1.88;0.90;;;;;;;17.30;48.81;68702.56;5059272;28;20047;-76
2022/09/03 00:40:46;;;;;;;1.45;0.82;;;;;;;;;;5045312;28;20041;-76
2022/09/03 00:43:18;;;;;;;1.63;1.08;;;;;;;;;;5045166;28;20083;-77
2022/09/03 00:45:54;;;;;;;2.55;0.90;;;;;;;;;;5040074;28;20289;-78
2022/09/03 00:48:26;;;;;;;2.92;1.10;;;;;;;17.13;49.14;68681.03;5038915;28;20048;-77
2022/09/03 00:51:16;;;;;;;1.67;0.88;;;;;;;17.13;49.38;68678.34;5043469;28;20175;-77
2022/09/03 00:53:56;;;;;;;2.08;1.00;;;;;;;;;;5044881;28;20043;-77
2022/09/03 00:56:36;;;;;;;2.50;1.00;;;;;;;;;;5044136;28;20115;-77
2022/09/03 00:59:10;;;;;;;2.78;1.02;;;;;;;17.06;49.50;68672.47;5047189;28;20048;-77
2022/09/03 01:01:54;;;;;;;3.67;1.08;;;;;;;;;;5046010;28;20483;-77
2022/09/03 01:04:50;;;;;;;1.45;1.10;;;;;;;16.97;49.76;68662.78;5049785;28;20047;-77
2022/09/03 01:07:47;;;;;;;4.75;0.90;;;;;;;16.96;50.05;68658.41;5061114;28;20569;-78
2022/09/03 01:10:40;;;;;;;1.85;0.90;;;;;;;16.94;49.87;68650.72;5049037;28;20042;-78
2022/09/03 01:13:15;;;;;;;3.17;1.13;;;;;;;;;;5043551;28;20044;-77
2022/09/03 01:15:46;;;;;;;2.55;0.82;;;;;;;;;;5050772;28;20126;-77
2022/09/03 01:18:28;;;;;;;2.17;1.15;;;;;;;16.85;50.30;68646.97;5047094;28;20056;-78
2022/09/03 01:21:33;;;;;;;2.20;0.90;;;;;;;16.82;50.39;68643.00;5045649;28;20060;-77
2022/09/03 01:24:30;;;;;;;2.72;1.05;;;;;;;16.75;50.43;68637.69;5064328;28;20107;-77
2022/09/03 01:27:24;;;;;;;1.27;0.75;;;;;;;16.67;50.93;68627.00;5031227;28;20037;-78
2022/09/03 01:30:16;;;;;;;1.50;0.88;;;;;;;16.61;51.14;68619.59;5038297;28;20045;-77
2022/09/03 01:33:03;;;;;;;3.15;0.90;;;;;;;16.60;51.06;68618.44;5054582;28;20060;-77
2022/09/03 01:35:57;;;;;;;3.80;1.00;;;;;;;16.59;51.27;68617.31;5048272;28;20049;-77
2022/09/03 01:38:25;;;;;;;1.60;0.93;;;;;;;;;;5042974;28;20041;-78
2022/09/03 01:40:50;;;;;;;3.70;0.90;;;;;;;16.47;51.58;68599.41;5048695;28;20459;-77
2022/09/03 01:43:18;;;;;;;3.67;1.13;;;;;;;;;;5051122;28;20044;-79
2022/09/03 01:45:49;;;;;;;2.57;0.90;;;;;;;;;;5048941;28;20167;-78
2022/09/03 01:48:32;;;;;;;1.92;0.90;;;;;;;16.34;52.23;68589.97;5049510;28;20677;-77
2022/09/03 01:51:21;;;;;;;2.58;1.00;;;;;;;16.29;52.34;68583.69;5061031;28;20095;-77
2022/09/03 01:54:07;;;;;;;2.83;0.90;;;;;;;16.22;52.53;68576.84;5036766;28;20049;-78
2022/09/03 01:56:49;;;;;;;2.13;1.00;;;;;;;16.18;52.74;68572.28;5048689;28;20112;-77
2022/09/03 01:59:25;;;;;;;2.40;0.93;;;;;;;16.13;53.11;68566.56;5049400;28;20519;-77
2022/09/03 02:01:53;;;;;;;2.50;0.85;;;;;;;;;;5049832;28;20116;-77
2022/09/03 02:04:22;;;;;;;5.40;1.23;;;;;;;;;;5046979;28;20404;-77
2022/09/03 02:06:49;;;;;;;1.40;0.80;;;;;;;16.08;52.95;68563.00;5051383;28;20106;-78
2022/09/03 02:09:15;;;;;;;2.83;0.90;;;;;;;;;;5053268;28;20072;-78
2022/09/03 02:11:45;;;;;;;2.30;0.80;;;;;;;16.02;53.22;68554.63;5049843;28;20037;-78
2022/09/03 02:14:11;;;;;;;3.55;0.88;;;;;;;16.01;53.53;68552.91;5049151;28;20398;-76
2022/09/03 02:16:37;;;;;;;1.90;0.98;;;;;;;15.93;53.98;68544.34;5048531;28;20095;-76
2022/09/03 02:19:15;;;;;;;4.10;0.95;;;;;;;15.89;53.92;68539.81;5047770;28;20041;-76
2022/09/03 02:21:51;;;;;;;10.20;1.50;;;;;;;;;;5043887;28;20037;-76
2022/09/03 02:24:17;;;;;;;2.70;1.10;;;;;;;15.72;54.80;68520.44;5049314;28;20124;-76
2022/09/03 02:26:43;;;;;;;2.35;0.80;;;;;;;15.60;54.93;68507.31;5048111;28;20041;-77
2022/09/03 02:29:10;;;;;;;2.35;1.02;;;;;;;15.63;55.16;68510.16;5047211;28;20048;-77
2022/09/03 02:31:35;;;;;;;3.05;0.95;;;;;;;15.54;55.34;68495.66;5048420;28;20041;-77
2022/09/03 02:34:01;;;;;;;2.70;0.90;;;;;;;;;;5049182;28;20103;-77
2022/09/03 02:36:31;;;;;;;2.30;0.88;;;;;;;15.31;56.00;68480.19;5047888;28;20047;-76
2022/09/03 02:38:56;;;;;;;3.65;1.15;;;;;;;;;;5049311;28;20107;-76
2022/09/03 02:41:22;;;;;;;1.83;0.90;;;;;;;15.19;56.51;68461.16;5049379;28;20041;-76
2022/09/03 02:44:01;;;;;;;2.55;1.00;;;;;;;15.07;57.04;68451.31;5046502;28;20552;-77
2022/09/03 02:46:49;;;;;;;3.58;1.38;;;;;;;15.03;56.94;68443.50;5046783;28;20033;-76
2022/09/03 02:49:14;;;;;;;2.30;1.10;;;;;;;14.97;57.37;68442.59;5048968;28;20049;-77
2022/09/03 02:51:42;;;;;;;2.60;1.08;;;;;;;14.89;57.93;68430.81;5042275;28;20481;-77
2022/09/03 02:54:09;;;;;;;5.10;2.65;;;;;;;;;;5042406;28;20080;-78
2022/09/03 02:56:34;;;;;;;3.70;1.15;;;;;;;14.78;57.92;68418.28;5048104;28;20627;-79
2022/09/03 02:59:01;;;;;;;3.47;0.98;;;;;;;14.74;58.27;68411.06;5048866;28;20052;-76
2022/09/03 03:01:27;;;;;;;1.88;0.93;;;;;;;14.71;58.36;68407.66;5047914;28;20036;-78
2022/09/03 03:03:52;;;;;;;2.97;1.05;;;;;;;14.61;58.58;68400.06;5045932;28;20048;-78
2022/09/03 03:06:21;;;;;;;2.35;0.98;;;;;;;14.60;58.82;68395.69;5048048;28;20066;-79
2022/09/03 03:08:48;;;;;;;2.53;1.10;;;;;;;14.54;59.15;68388.84;5048203;28;20045;-76
2022/09/03 03:11:17;;;;;;;2.35;1.23;;;;;;;14.45;59.45;68382.41;5048757;28;20321;-76
2022/09/03 03:13:43;;;;;;;1.70;1.00;;;;;;;14.44;59.53;68383.94;5047297;28;20113;-79
2022/09/03 03:16:09;;;;;;;3.58;1.10;;;;;;;14.44;59.79;68378.59;5047110;28;20793;-78
2022/09/03 03:18:34;;;;;;;2.22;1.10;;;;;;;14.36;60.04;68371.59;5046396;28;20037;-77
2022/09/03 03:21:09;;;;;;;3.72;0.98;;;;;;;14.33;60.16;68365.50;5049913;28;20389;-77
2022/09/03 03:23:35;;;;;;;4.90;1.02;;;;;;;14.29;60.39;68366.28;5047227;28;20120;-77
2022/09/03 03:26:02;;;;;;;3.25;1.00;;;;;;;14.19;60.83;68355.50;5047104;28;20110;-78
2022/09/03 03:28:27;;;;;;;3.60;1.38;;;;;;;14.13;60.99;68343.88;5047318;28;20057;-78
2022/09/03 03:30:53;;;;;;;2.42;1.20;;;;;;;14.12;61.10;68342.72;5048253;28;20524;-77
2022/09/03 03:33:18;;;;;;;1.92;1.02;;;;;;;14.07;61.22;68336.47;5047372;28;20128;-77
2022/09/03 03:35:44;;;;;;;1.77;1.00;;;;;;;14.00;61.51;68329.63;5045722;28;20447;-77
2022/09/03 03:38:09;;;;;;;2.72;1.20;;;;;;;;;;5045535;28;20553;-77
2022/09/03 03:40:37;;;;;;;2.13;1.10;;;;;;;13.99;61.82;68327.94;5039426;28;20492;-77
2022/09/03 03:43:02;;;;;;;1.67;0.80;;;;;;;13.95;62.12;68323.97;5047424;28;20060;-77
2022/09/03 03:45:28;;;;;;;3.33;1.60;;;;;;;13.89;62.14;68316.56;5040476;28;20504;-77
2022/09/03 03:47:56;;;;;;;1.75;0.90;;;;;;;;;;5046951;28;20567;-78
2022/09/03 03:50:22;;;;;;;2.97;1.23;;;;;;;13.83;62.38;68309.72;5048375;28;20032;-78
2022/09/03 03:52:48;;;;;;;4.13;1.25;;;;;;;13.87;62.12;68314.28;5047720;28;20059;-76
2022/09/03 03:55:13;;;;;;;2.42;1.20;;;;;;;;;;5047770;28;20041;-77
2022/09/03 03:57:38;;;;;;;1.43;1.03;;;;;;;;;;5044000;28;20194;-77
2022/09/03 04:00:04;;;;;;;3.05;1.20;;;;;;;;;;5045618;28;20366;-77
2022/09/03 04:02:29;;;;;;;2.72;1.25;;;;;;;13.70;63.08;68298.75;5047170;28;20033;-76
2022/09/03 04:04:54;;;;;;;1.75;1.23;;;;;;;13.69;62.98;68297.59;5046701;28;20067;-77
2022/09/03 04:07:20;;;;;;;1.83;1.10;;;;;;;13.68;62.95;68293.22;5044164;28;20045;-77
2022/09/03 04:09:46;;;;;;;3.58;1.20;;;;;;;;;;5047377;28;20408;-77
2022/09/03 04:12:11;;;;;;;3.42;1.05;;;;;;;13.60;63.44;68286.81;5047530;28;20049;-77
2022/09/03 04:14:37;;;;;;;3.55;1.20;;;;;;;13.59;63.39;68286.25;5045192;28;20037;-77
2022/09/03 04:17:03;;;;;;;1.60;1.10;;;;;;;13.59;63.68;68283.56;5043747;28;20033;-77
2022/09/03 04:19:29;;;;;;;2.83;1.17;;;;;;;13.52;63.72;68276.19;5046361;28;20041;-77
2022/09/03 04:21:55;;;;;;;6.05;1.25;;;;;;;13.45;64.19;68267.63;5047060;28;20052;-78
2022/09/03 04:24:20;;;;;;;1.90;1.00;;;;;;;13.44;64.22;68267.06;5047107;28;20044;-77
2022/09/03 04:26:46;;;;;;;2.60;1.00;;;;;;;13.46;64.36;68268.75;5045656;28;20098;-77
2022/09/03 04:29:11;;;;;;;3.05;1.13;;;;;;;;;;5047162;28;20487;-77
2022/09/03 04:31:37;;;;;;;3.67;1.20;;;;;;;13.40;64.50;68261.94;5045504;28;20036;-77
2022/09/03 04:34:06;;;;;;;2.92;1.20;;;;;;;13.34;64.77;68255.13;5047088;28;20049;-77
2022/09/03 04:36:33;;;;;;;4.40;1.35;;;;;;;13.38;64.74;68259.66;5045601;28;20079;-76
2022/09/03 04:39:00;;;;;;;2.78;1.58;;;;;;;13.35;64.67;68261.59;5046837;28;20089;-77
2022/09/03 04:41:28;;;;;;;4.00;1.10;;;;;;;13.39;64.77;68260.81;5046761;28;20047;-77
2022/09/03 04:43:55;;;;;;;4.47;1.20;;;;;;;13.34;64.74;68255.13;5045399;28;20091;-78
2022/09/03 04:46:24;;;;;;;10.52;1.83;;;;;;;13.34;64.78;68255.13;5044416;28;20061;-77
2022/09/03 04:48:51;;;;;;;11.20;1.75;;;;;;;13.35;65.10;68258.94;5038097;28;20037;-77
2022/09/03 04:51:23;;;;;;;4.22;1.30;;;;;;;13.35;64.89;68256.25;5042865;28;20041;-77
2022/09/03 04:53:53;;;;;;;3.67;1.40;;;;;;;;;;5046780;28;20116;-77
2022/09/03 04:56:21;;;;;;;4.95;1.80;;;;;;;13.27;65.20;68247.72;5042976;28;20055;-78
2022/09/03 04:58:47;;;;;;;6.88;1.52;;;;;;;13.29;65.21;68252.66;5046105;28;20408;-78
2022/09/03 05:01:24;;;;;;;2.78;1.33;;;;;;;13.27;65.29;68248.31;5046999;28;20033;-78
2022/09/03 05:03:52;;;;;;;2.97;1.25;;;;;;;;;;5046680;28;20582;-78
2022/09/03 05:06:19;;;;;;;3.90;1.15;;;;;;;13.30;65.21;68251.72;5045291;28;20045;-76
2022/09/03 05:08:48;;;;;;;3.92;1.48;;;;;;;13.28;65.59;68244.09;5046599;28;20037;-77
2022/09/03 05:11:14;;;;;;;2.95;1.30;;;;;;;13.32;65.32;68254.00;5047289;28;20240;-77
2022/09/03 05:13:40;;;;;;;2.35;1.40;;;;;;;13.32;65.47;68253.41;5046487;28;20040;-76
2022/09/03 05:16:07;;;;;;;2.97;1.38;;;;;;;;;;5045860;28;20549;-77
2022/09/03 05:18:34;;;;;;;5.35;1.30;;;;;;;;;;5046255;28;20037;-77
2022/09/03 05:21:01;;;;;;;7.65;1.38;;;;;;;13.44;64.94;68269.75;5046861;28;20570;-78
2022/09/03 05:23:29;;;;;;;2.95;1.10;;;;;;;13.46;65.10;68274.13;5043800;28;20638;-76
2022/09/03 05:26:01;;;;;;;3.88;1.30;;;;;;;13.50;64.69;68273.91;5046278;28;20052;-78
2022/09/03 05:28:29;;;;;;;3.30;1.60;;;;;;;13.47;65.08;68269.91;5045931;28;20036;-76
2022/09/03 05:30:59;;;;;;;2.03;1.27;;;;;;;13.47;64.96;68275.84;5044483;28;20112;-78
2022/09/03 05:33:26;;;;;;;1.98;1.30;;;;;;;13.51;64.86;68274.47;5044654;28;20056;-78
2022/09/03 05:35:53;;;;;;;2.42;1.30;;;;;;;13.51;65.21;68279.81;5042094;28;20045;-77
2022/09/03 05:38:19;;;;;;;3.40;1.33;;;;;;;13.48;65.17;68271.03;5046591;28;20041;-76
2022/09/03 05:40:44;;;;;;;3.33;1.10;;;;;;;13.56;65.01;68282.81;5045783;28;20114;-77
2022/09/03 05:43:09;;;;;;;2.97;1.52;;;;;;;;;;5046022;28;20069;-77
2022/09/03 05:45:35;;;;;;;3.25;1.25;;;;;;;13.63;65.03;68288.09;5041762;28;20041;-76
2022/09/03 05:48:01;;;;;;;3.75;1.17;;;;;;;13.70;64.77;68295.50;5046783;28;20049;-77
2022/09/03 05:50:26;;;;;;;4.13;1.40;;;;;;;13.74;64.46;68302.72;5049032;28;20048;-77
2022/09/03 05:52:52;;;;;;;3.25;1.20;;;;;;;13.82;64.47;68309.16;5050416;28;20492;-78
2022/09/03 05:55:18;;;;;;;4.78;1.10;;;;;;;13.87;64.30;68319.63;5047453;28;20518;-78
2022/09/03 05:57:44;;;;;;;4.03;1.30;;;;;;;13.92;64.51;68319.97;5040172;28;20045;-78
2022/09/03 06:00:10;;;;;;;2.38;0.98;;;;;;;14.05;63.92;68334.75;5048448;28;20052;-78
2022/09/03 06:02:36;;;;;;;6.15;1.20;;;;;;;14.11;63.92;68341.03;5049320;28;20045;-77
2022/09/03 06:05:01;;;;;;;2.92;1.05;;;;;;;14.17;63.83;68353.78;5050253;28;20045;-77
2022/09/03 06:07:27;;;;;;;3.83;1.30;;;;;;;14.26;63.52;68357.53;5047950;28;20029;-78
2022/09/03 06:09:53;;;;;;;3.20;1.00;;;;;;;14.37;63.21;68370.03;5049316;28;20102;-78
2022/09/03 06:12:18;;;;;;;2.97;1.15;;;;;;;14.46;62.73;68382.97;5048831;28;20049;-78
2022/09/03 06:14:44;;;;;;;2.67;1.30;;;;;;;14.54;62.53;68389.41;5048668;28;20045;-78
2022/09/03 06:17:11;;;;;;;2.90;1.13;;;;;;;14.63;62.06;68399.66;5048997;28;20047;-79
2022/09/03 06:19:37;;;;;;;3.03;1.15;;;;;;;14.72;61.97;68408.78;5049162;28;20543;-78
2022/09/03 06:22:03;;;;;;;2.53;1.20;;;;;;;14.81;61.82;68419.03;5048634;28;20044;-78
2022/09/03 06:24:28;;;;;;;4.30;1.30;;;;;;;14.86;61.64;68430.63;5049985;28;20048;-78
2022/09/03 06:26:55;;;;;;;3.83;1.38;;;;;;;15.01;61.23;68446.59;5048752;28;20139;-77
2022/09/03 06:29:21;;;;;;;1.30;0.90;;;;;;;15.10;60.83;68452.06;5049320;28;20049;-77
2022/09/03 06:31:50;;;;;;;6.30;1.13;;;;;;;15.20;60.51;68462.31;5045969;28;20029;-77
2022/09/03 06:34:17;;;;;;;1.52;0.90;;;;;;;15.32;60.28;68475.97;5049203;28;20079;-77
2022/09/03 06:36:43;;;;;;;7.20;1.25;;;;;;;15.41;60.01;68488.91;5048453;28;20037;-77
2022/09/03 06:39:08;;;;;;;4.80;1.17;;;;;;;;;;5049563;28;20550;-77
2022/09/03 06:41:34;;;;;;;3.50;1.27;;;;;;;;;;5047780;28;20055;-77
2022/09/03 06:44:04;;;;;;;2.08;1.08;;;;;;;15.70;58.93;68518.16;5049437;28;20415;-78
2022/09/03 06:46:32;;;;;;;2.50;1.10;;;;;;;15.76;58.78;68525.53;5048431;28;20032;-77
2022/09/03 06:48:58;;;;;;;3.13;1.20;;;;;;;15.87;58.38;68536.94;5048855;28;20041;-77
2022/09/03 06:51:26;;;;;;;1.90;1.08;;;;;;;15.99;58.43;68545.81;5048937;28;20044;-77
2022/09/03 06:53:53;;;;;;;2.55;1.20;;;;;;;;;;5047475;28;20048;-77
2022/09/03 06:56:25;;;;;;;3.65;1.10;;;;;;;;;;5047148;28;20048;-77
2022/09/03 06:58:51;;;;;;;1.92;1.08;;;;;;;16.35;57.74;68583.03;5048295;28;20069;-77
2022/09/03 07:01:22;;;;;;;4.18;1.15;;;;;;;16.46;56.95;68606.31;5048847;28;20047;-77
2022/09/03 07:03:51;;;;;;;4.75;1.17;;;;;;;;;;5048335;28;20076;-77
2022/09/03 07:06:17;;;;;;;2.15;1.10;;;;;;;;;;5045429;28;20045;-77
2022/09/03 07:08:45;;;;;;;2.97;1.13;;;;;;;16.81;55.79;68642.44;5047888;28;20044;-78
2022/09/03 07:11:13;;;;;;;2.58;1.20;;;;;;;16.87;55.69;68649.28;5048740;28;20066;-78
2022/09/03 07:13:43;;;;;;;3.10;0.98;;;;;;;17.01;55.67;68664.09;5045049;28;20049;-77
2022/09/03 07:16:14;;;;;;;4.45;1.20;;;;;;;17.17;54.47;68681.78;5042807;28;20041;-78
2022/09/03 07:18:42;;;;;;;3.22;1.10;;;;;;;17.25;54.72;68690.91;5046232;28;20132;-77
2022/09/03 07:21:13;;;;;;;1.92;1.00;;;;;;;17.37;54.52;68709.97;5048292;28;20041;-78
2022/09/03 07:23:39;;;;;;;3.13;1.42;;;;;;;17.46;53.59;68709.47;5047788;28;20041;-77
2022/09/03 07:26:07;;;;;;;2.92;1.00;;;;;;;17.54;53.06;68718.03;5042944;28;20068;-77
2022/09/03 07:28:33;;;;;;;2.25;1.13;;;;;;;;;;5044208;28;20041;-77
2022/09/03 07:31:10;;;;;;;3.10;1.17;;;;;;;;;;5044449;28;20045;-77
2022/09/03 07:33:37;;;;;;;2.13;1.15;;;;;;;18.00;52.64;68774.81;5043817;28;20040;-77
2022/09/03 07:36:08;;;;;;;5.78;1.48;;;;;;;18.02;52.29;68771.69;5041554;28;20099;-76
2022/09/03 07:38:35;;;;;;;2.00;1.00;;;;;;;18.07;51.82;68782.22;5044792;28;20057;-77
2022/09/03 07:41:03;;;;;;;3.92;1.17;;;;;;;18.21;52.26;68793.41;5040414;28;20048;-77
2022/09/03 07:43:32;;;;;;;3.05;0.90;;;;;;;18.32;51.53;68804.81;5040934;28;20132;-76
2022/09/03 07:45:58;;;;;;;4.82;1.58;;;;;;;18.42;51.28;68816.22;5042332;28;20045;-76
2022/09/03 07:48:23;;;;;;;2.30;1.00;;;;;;;;;;5043571;28;20115;-76
2022/09/03 07:50:48;;;;;;;4.23;0.97;;;;;;;;;;5043825;28;20045;-77
2022/09/03 07:53:17;;;;;;;2.58;1.00;;;;;;;;;;5042705;28;20806;-77
2022/09/03 07:55:43;;;;;;;;;;;;;;;18.67;49.55;68850.16;5039821;28;20037;-76
2022/09/03 07:58:13;;;;;;;3.85;1.20;;;;;;;18.75;50.10;68858.19;5044837;28;19925;-77
2022/09/03 08:00:38;;;;;;;2.70;0.90;;;;;;;;;;5046941;28;20112;-77
2022/09/03 08:03:07;;;;;;;9.35;1.40;;;;;;;;;;5040758;28;20049;-76
2022/09/03 08:05:35;;;;;;;7.00;1.50;;;;;;;19.17;48.94;68900.75;5042092;28;20079;-77
2022/09/03 08:08:00;;;;;;;2.92;0.80;;;;;;;;;;5043888;28;20092;-77
2022/09/03 08:10:30;;;;;;;2.42;1.10;;;;;;;19.33;48.66;68926.56;5045750;28;20066;-77
2022/09/03 08:12:57;;;;;;;10.35;1.08;;;;;;;19.46;48.49;68932.75;5046919;28;20033;-77
2022/09/03 08:15:24;;;;;;;2.92;0.98;;;;;;;;;;5046304;28;20033;-77
2022/09/03 08:17:49;;;;;;;3.95;1.08;;;;;;;19.65;47.25;68953.31;5045854;28;20095;-77
2022/09/03 08:20:14;;;;;;;3.15;1.15;;;;;;;19.73;47.20;68959.78;5043344;28;20096;-77
2022/09/03 08:22:40;;;;;;;6.22;1.20;;;;;;;;;;5045869;28;20052;-76
2022/09/03 08:25:06;;;;;;;3.65;0.95;;;;;;;;;;5045861;28;20037;-77
2022/09/03 08:27:31;;;;;;;3.67;1.00;;;;;;;20.16;46.42;69011.06;5045633;28;20110;-77
2022/09/03 08:29:56;;;;;;;2.60;1.33;;;;;;;20.24;46.00;69020.22;5044251;28;20037;-77
2022/09/03 08:32:21;;;;;;;5.32;1.08;;;;;;;;;;5045816;28;20494;-77
2022/09/03 08:34:47;;;;;;;1.63;0.93;;;;;;;20.36;46.12;69032.78;5046841;28;20041;-78
2022/09/03 08:37:12;;;;;;;2.67;0.90;;;;;;;20.44;45.90;69047.91;5044439;28;20288;-77
2022/09/03 08:39:38;;;;;;;4.57;0.93;;;;;;;20.59;45.53;69058.53;5047025;28;20041;-77
2022/09/03 08:42:04;;;;;;;2.47;0.75;;;;;;;;;;5046110;28;20056;-77
2022/09/03 08:44:32;;;;;;;9.70;2.88;;;;;;;20.85;44.60;69093.69;5045507;28;20738;-77
2022/09/03 08:47:04;;;;;;;;;;;;;;;20.99;44.50;69100.44;5045693;28;20549;-77
2022/09/03 08:49:32;;;;;;;7.15;1.80;;;;;;;;;;5046166;28;19916;-77
2022/09/03 08:52:02;;;;;;;3.42;1.27;;;;;;;20.90;44.57;69093.41;5046322;28;20065;-78
2022/09/03 08:54:30;;;;;;;5.32;1.30;;;;;;;20.98;44.49;69102.00;5039566;28;20127;-77
2022/09/03 08:56:58;;;;;;;3.83;1.08;;;;;;;;;;5035498;28;20431;-78
2022/09/03 08:59:24;;;;;;;5.15;0.93;;;;;;;21.37;43.73;69143.94;5037703;28;20520;-78
2022/09/03 09:02:01;;;;;;;3.08;0.85;;;;;;;21.38;43.46;69147.78;5037325;28;20080;-78
2022/09/03 09:04:40;;;;;;;2.42;0.98;;;;;;;;;;5042838;28;20056;-77
2022/09/03 09:07:31;;;;;;;6.28;0.95;;;;;;;21.53;43.32;69169.22;5053806;28;20088;-77
2022/09/03 09:10:20;;;;;;;4.28;1.25;;;;;;;21.67;43.24;69179.25;5037973;28;20041;-77
2022/09/03 09:13:01;;;;;;;3.20;0.95;;;;;;;;;;5036284;28;20693;-77
2022/09/03 09:15:32;;;;;;;4.20;1.00;;;;;;;;;;5039761;28;20210;-78
2022/09/03 09:18:04;;;;;;;3.58;1.20;;;;;;;21.85;42.62;69200.44;5039653;28;20052;-77
2022/09/03 09:20:50;;;;;;;5.68;1.17;;;;;;;21.99;42.51;69221.31;5039109;28;20039;-77
2022/09/03 09:23:28;;;;;;;2.20;1.20;;;;;;;22.13;42.55;69236.75;5029942;28;20045;-77
2022/09/03 09:25:56;;;;;;;4.53;0.98;;;;;;;;;;5039113;28;20179;-78
2022/09/03 09:28:24;;;;;;;6.88;1.00;;;;;;;22.27;41.49;69244.69;5048333;28;20067;-77
2022/09/03 09:30:54;;;;;;;2.55;0.93;;;;;;;22.40;41.81;69261.69;5043300;28;20049;-77
2022/09/03 09:33:22;;;;;;;2.25;0.85;;;;;;;;;;5036116;28;20057;-78
2022/09/03 09:35:48;;;;;;;2.08;0.80;;;;;;;22.77;40.48;69302.94;5033607;28;20436;-78
2022/09/03 09:38:14;;;;;;;2.58;1.08;;;;;;;22.80;40.65;69303.09;5037638;28;20411;-78
2022/09/03 09:40:42;;;;;;;5.15;1.20;;;;;;;22.72;40.61;69297.78;5036295;28;20045;-77
2022/09/03 09:43:15;;;;;;;3.80;1.30;;;;;;;22.88;40.81;69315.53;5040958;28;20049;-77
2022/09/03 09:45:48;;;;;;;3.17;1.20;;;;;;;22.87;40.02;69313.81;5036209;28;20049;-78
2022/09/03 09:48:31;;;;;;;6.05;1.17;;;;;;;23.06;39.87;69332.88;5039653;28;20122;-78
2022/09/03 09:51:12;;;;;;;5.10;1.10;;;;;;;23.30;40.24;69362.50;5039901;28;20033;-77
2022/09/03 09:53:39;;;;;;;4.88;1.20;;;;;;;23.29;39.56;69361.38;5041354;28;20511;-77
2022/09/03 09:56:05;;;;;;;2.38;0.93;;;;;;;23.29;39.21;69358.09;5045813;28;20451;-77
2022/09/03 09:58:31;;;;;;;1.65;0.80;;;;;;;;;;5048265;28;20032;-77
2022/09/03 10:01:11;;;;;;;7.10;1.00;;;;;;;23.47;39.40;69376.00;5043651;28;20045;-77
2022/09/03 10:03:47;;;;;;;1.83;1.00;;;;;;;23.57;39.40;69392.31;5037309;28;20041;-77
2022/09/03 10:09:10;;;;;;;8.43;1.00;;;;;;;23.73;39.24;69410.09;5041416;28;20071;-77
2022/09/03 10:11:39;;;;;;;5.88;2.25;;;;;;;23.61;38.56;69397.47;5043010;28;20057;-76
2022/09/03 10:14:34;;;;;;;1.63;0.80;;;;;;;23.68;38.79;69401.63;5045472;28;20049;-76
2022/09/03 10:17:15;;;;;;;4.88;1.33;;;;;;;23.71;38.92;69408.41;5043897;28;20041;-77
2022/09/03 10:22:45;;;;;;;2.90;1.23;;;;;;;;;;5046618;28;20044;-77
2022/09/03 10:25:14;;;;;;;3.15;0.95;;;;;;;23.94;38.10;69431.47;5047394;28;20706;-77
2022/09/03 10:27:39;;;;;;;4.40;1.17;;;;;;;24.08;38.34;69450.22;5045610;28;20033;-77
2022/09/03 10:30:07;;;;;;;2.83;0.90;;;;;;;;;;5046156;28;20790;-78
2022/09/03 10:33:02;;;;;;;2.57;1.00;;;;;;;24.14;38.19;69456.53;5044627;28;20036;-78
2022/09/03 10:35:41;;;;;;;4.35;1.20;;;;;;;24.31;38.11;69472.72;5045584;28;20106;-76
2022/09/03 10:38:18;;;;;;;2.95;1.27;;;;;;;24.45;37.80;69490.94;5060374;28;20124;-77
2022/09/03 10:40:50;;;;;;;3.55;0.98;;;;;;;;;;5044481;28;20037;-77
2022/09/03 10:43:15;;;;;;;4.53;1.10;;;;;;;24.65;37.25;69513.88;5044680;28;20107;-77
2022/09/03 10:46:04;;;;;;;5.57;1.23;;;;;;;;;;5043811;28;20040;-77
2022/09/03 10:48:52;;;;;;;3.38;1.02;;;;;;;24.58;37.59;69505.28;5046509;28;20064;-76
2022/09/03 10:51:22;;;;;;;4.93;1.23;;;;;;;24.60;37.15;69507.56;5072265;28;20114;-75
2022/09/03 10:54:06;;;;;;;3.78;1.30;;;;;;;24.63;37.28;69508.88;5039241;28;20045;-78
2022/09/03 10:56:32;;;;;;;4.68;1.20;;;;;;;24.69;37.50;69517.91;5050657;28;20467;-78
2022/09/03 10:59:24;;;;;;;3.50;0.80;;;;;;;24.73;37.87;69527.94;5048888;28;20033;-78
2022/09/03 11:02:08;;;;;;;4.30;1.10;;;;;;;24.78;37.00;69528.22;5043199;28;20037;-77
2022/09/03 11:05:11;;;;;;;5.22;1.10;;;;;;;24.85;36.52;69533.53;5047209;28;20140;-79
2022/09/03 11:07:48;;;;;;;5.45;1.40;;;;;;;24.84;36.72;69535.09;5013097;28;20122;-78
2022/09/03 11:10:34;;;;;;;4.47;1.10;;;;;;;;;;5065571;28;20044;-79
2022/09/03 11:13:12;;;;;;;3.75;1.05;;;;;;;25.21;36.49;69577.00;5045113;28;20055;-79
2022/09/03 11:15:52;;;;;;;4.50;1.30;;;;;;;25.08;36.34;69558.75;5051747;28;20055;-79
2022/09/03 11:18:50;;;;;;;4.22;1.00;;;;;;;25.04;36.88;69556.91;5047805;28;20059;-78
2022/09/03 11:21:20;;;;;;;3.33;1.15;;;;;;;25.02;36.45;69555.19;5064478;28;20048;-78
2022/09/03 11:23:49;;;;;;;3.92;1.05;;;;;;;25.21;36.36;69573.72;5047688;28;20083;-77
2022/09/03 11:26:18;;;;;;;2.92;0.98;;;;;;;25.47;36.74;69605.13;5040522;28;20045;-78
2022/09/03 11:28:58;;;;;;;3.67;1.10;;;;;;;25.59;35.93;69616.16;5049881;28;20496;-77
2022/09/03 11:31:30;;;;;;;5.90;1.40;;;;;;;25.55;35.90;69614.88;5052734;28;20064;-78
2022/09/03 11:34:27;;;;;;;3.17;1.13;;;;;;;25.75;35.74;69636.66;5044946;28;20045;-77
2022/09/03 11:37:23;;;;;;;2.38;1.10;;;;;;;25.37;35.78;69594.22;5045646;28;20057;-78
2022/09/03 11:40:06;;;;;;;4.38;1.00;;;;;;;25.34;35.79;69591.34;5049542;28;20040;-78
2022/09/03 11:42:36;;;;;;;2.83;1.23;;;;;;;;;;5052313;28;20124;-77
2022/09/03 11:45:23;;;;;;;2.97;1.20;;;;;;;25.75;35.80;69637.25;5055625;28;20051;-76
2022/09/03 11:47:49;;;;;;;6.60;1.20;;;;;;;25.76;35.66;69638.41;5049797;28;20037;-78
2022/09/03 11:50:54;;;;;;;2.45;1.33;;;;;;;26.01;35.49;69663.22;5051587;28;20075;-78
2022/09/03 11:53:19;;;;;;;5.30;1.20;;;;;;;26.08;34.75;69674.56;5046269;28;20510;-78
2022/09/03 11:56:04;;;;;;;3.35;1.23;;;;;;;26.06;35.14;69668.97;5051487;28;20148;-78
2022/09/03 11:58:36;;;;;;;8.98;1.30;;;;;;;26.07;34.70;69670.13;5047341;28;20037;-76
2022/09/03 12:01:07;;;;;;;3.85;1.52;;;;;;;26.36;35.70;69700.13;5046133;28;20079;-78
2022/09/03 12:03:48;;;;;;;2.33;0.90;;;;;;;26.65;35.27;69730.13;5046553;28;20045;-76
2022/09/03 12:06:26;;;;;;;5.85;1.25;;;;;;;26.71;34.58;69745.22;5061335;28;20107;-77
2022/09/03 12:08:57;;;;;;;4.43;1.13;;;;;;;26.77;34.23;69746.06;5045896;28;20050;-77
2022/09/03 12:11:38;;;;;;;3.17;1.10;;;;;;;;;;5046713;28;20040;-77
2022/09/03 12:14:16;;;;;;;2.33;1.20;;;;;;;26.81;34.78;69755.53;5047055;28;20048;-77
2022/09/03 12:16:47;;;;;;;4.05;1.45;;;;;;;26.93;33.92;69767.19;5045533;28;20041;-77
2022/09/03 12:19:25;;;;;;;3.60;1.38;;;;;;;26.93;33.70;69766.59;5044183;28;20041;-76
2022/09/03 12:21:51;;;;;;;4.10;1.40;;;;;;;26.96;33.25;69770.63;5046200;28;20041;-77
2022/09/03 12:24:19;;;;;;;4.38;1.30;;;;;;;27.02;34.37;69774.22;5040904;28;20045;-76
2022/09/03 12:26:44;;;;;;;2.53;1.38;;;;;;;27.07;33.96;69782.66;5041356;28;20037;-76
2022/09/03 12:29:25;;;;;;;2.08;1.10;;;;;;;27.23;33.84;69798.34;5046982;28;20040;-77
2022/09/03 12:31:51;;;;;;;5.20;1.60;;;;;;;26.94;34.22;69767.75;5043772;28;20508;-78
2022/09/03 12:34:19;;;;;;;2.70;1.27;;;;;;;27.22;34.05;69799.94;5040567;28;20044;-78
2022/09/03 12:36:53;;;;;;;2.17;1.02;;;;;;;27.41;33.83;69823.34;5038448;28;20057;-76